createdAt,value
2022-11-22T00:01:22.935Z,15.70
2022-11-22T00:03:51.372Z,15.70
2022-11-22T00:06:19.801Z,15.70
2022-11-22T00:08:48.510Z,15.70
2022-11-22T00:11:18.368Z,15.70
2022-11-22T00:13:46.870Z,15.70
2022-11-22T00:16:15.255Z,15.70
2022-11-22T00:18:43.712Z,15.70
2022-11-22T00:21:12.052Z,15.70
2022-11-22T00:23:40.495Z,15.70
2022-11-22T00:26:12.199Z,15.70
2022-11-22T00:28:42.268Z,15.70
2022-11-22T00:31:10.583Z,15.70
2022-11-22T00:33:39.069Z,15.70
2022-11-22T00:36:07.687Z,15.70
2022-11-22T00:38:36.060Z,15.60
2022-11-22T00:41:04.732Z,15.60
2022-11-22T00:43:33.045Z,15.70
2022-11-22T00:46:02.911Z,15.60
2022-11-22T00:48:31.304Z,15.60
2022-11-22T00:50:59.770Z,15.60
2022-11-22T00:53:28.124Z,15.60
2022-11-22T00:55:56.483Z,15.60
2022-11-22T00:58:25.117Z,15.60
2022-11-22T01:00:56.507Z,15.60
2022-11-22T01:03:27.115Z,15.60
2022-11-22T01:05:55.438Z,15.60
2022-11-22T01:08:24.249Z,15.60
2022-11-22T01:10:58.401Z,15.60
2022-11-22T01:13:27.205Z,15.60
2022-11-22T01:15:55.758Z,15.60
2022-11-22T01:18:24.048Z,15.60
2022-11-22T01:20:53.946Z,15.60
2022-11-22T01:23:22.370Z,15.60
2022-11-22T01:25:51.125Z,15.60
2022-11-22T01:28:20.196Z,15.60
2022-11-22T01:30:52.327Z,15.60
2022-11-22T01:33:21.593Z,15.60
2022-11-22T01:35:49.995Z,15.60
2022-11-22T01:38:19.795Z,15.60
2022-11-22T01:40:48.220Z,15.60
2022-11-22T01:43:20.094Z,15.60
2022-11-22T01:45:51.699Z,15.60
2022-11-22T01:48:41.913Z,15.60
2022-11-22T01:51:19.955Z,15.60
2022-11-22T01:53:50.638Z,15.60
2022-11-22T01:56:21.353Z,15.60
2022-11-22T01:58:54.009Z,15.60
2022-11-22T02:01:22.731Z,15.60
2022-11-22T02:03:55.414Z,15.60
2022-11-22T02:06:24.680Z,15.60
2022-11-22T02:09:00.487Z,15.60
2022-11-22T02:11:34.091Z,15.60
2022-11-22T02:14:03.852Z,15.60
2022-11-22T02:16:33.067Z,15.60
2022-11-22T02:19:01.520Z,15.60
2022-11-22T02:21:30.531Z,15.60
2022-11-22T02:24:06.808Z,15.70
2022-11-22T02:26:37.421Z,15.70
2022-11-22T02:29:09.187Z,15.70
2022-11-22T02:31:42.513Z,15.70
2022-11-22T02:34:11.488Z,15.70
2022-11-22T02:36:44.104Z,15.70
2022-11-22T02:39:15.606Z,15.70
2022-11-22T02:41:45.997Z,15.70
2022-11-22T02:44:15.559Z,15.70
2022-11-22T02:46:52.138Z,15.70
2022-11-22T02:49:22.115Z,15.70
2022-11-22T02:51:51.691Z,15.70
2022-11-22T02:54:20.260Z,15.70
2022-11-22T02:56:50.128Z,15.70
2022-11-22T02:59:18.511Z,15.70
2022-11-22T03:01:48.655Z,15.60
2022-11-22T03:04:25.177Z,15.70
2022-11-22T03:06:55.739Z,15.70
2022-11-22T03:09:24.375Z,15.70
2022-11-22T03:11:54.978Z,15.60
2022-11-22T03:14:23.653Z,15.70
2022-11-22T03:16:52.454Z,15.70
2022-11-22T03:19:21.228Z,15.60
2022-11-22T03:21:49.519Z,15.60
2022-11-22T03:24:19.507Z,15.70
2022-11-22T03:26:49.507Z,15.60
2022-11-22T03:29:19.830Z,15.70
2022-11-22T03:31:48.228Z,15.60
2022-11-22T03:34:17.123Z,15.60
2022-11-22T03:36:45.830Z,15.60
2022-11-22T03:39:14.320Z,15.60
2022-11-22T03:41:42.820Z,15.60
2022-11-22T03:44:11.360Z,15.60
2022-11-22T03:46:41.190Z,15.60
2022-11-22T03:49:09.589Z,15.60
2022-11-22T03:51:37.971Z,15.60
2022-11-22T03:54:06.863Z,15.60
2022-11-22T03:56:35.272Z,15.60
2022-11-22T03:59:03.645Z,15.60
2022-11-22T04:01:32.106Z,15.60
2022-11-22T04:04:01.914Z,15.60
2022-11-22T04:06:30.390Z,15.60
2022-11-22T04:08:58.807Z,15.60
2022-11-22T04:11:27.355Z,15.50
2022-11-22T04:14:13.313Z,15.60
2022-11-22T04:16:41.754Z,15.50
2022-11-22T04:19:11.667Z,15.60
2022-11-22T04:21:39.035Z,15.60
2022-11-22T04:24:26.864Z,15.60
2022-11-22T04:26:55.757Z,15.50
2022-11-22T04:29:24.355Z,15.50
2022-11-22T04:32:11.098Z,15.50
2022-11-22T04:34:40.867Z,15.50
2022-11-22T04:37:09.476Z,15.50
2022-11-22T04:39:37.985Z,15.50
2022-11-22T04:42:23.937Z,15.50
2022-11-22T04:44:52.311Z,15.50
2022-11-22T04:47:38.346Z,15.50
2022-11-22T04:50:23.935Z,15.50
2022-11-22T04:52:57.938Z,15.50
2022-11-22T04:55:26.502Z,15.50
2022-11-22T04:57:59.536Z,15.50
2022-11-22T05:00:29.060Z,15.50
2022-11-22T05:02:57.421Z,15.50
2022-11-22T05:05:28.034Z,15.50
2022-11-22T05:07:56.962Z,15.50
2022-11-22T05:10:27.058Z,15.40
2022-11-22T05:12:56.417Z,15.50
2022-11-22T05:15:24.848Z,15.40
2022-11-22T05:17:53.229Z,15.40
2022-11-22T05:20:21.578Z,15.40
2022-11-22T05:23:08.813Z,15.40
2022-11-22T05:25:37.141Z,15.40
2022-11-22T05:28:05.675Z,15.40
2022-11-22T05:30:34.166Z,15.40
2022-11-22T05:33:02.525Z,15.40
2022-11-22T05:35:30.928Z,15.40
2022-11-22T05:38:00.818Z,15.40
2022-11-22T05:40:29.448Z,15.30
2022-11-22T05:42:58.678Z,15.40
2022-11-22T05:45:27.388Z,15.40
2022-11-22T05:47:56.824Z,15.40
2022-11-22T05:50:25.240Z,15.30
2022-11-22T05:52:53.664Z,15.30
2022-11-22T05:55:23.460Z,15.40
2022-11-22T05:57:51.824Z,15.30
2022-11-22T06:00:20.896Z,15.30
2022-11-22T06:02:49.294Z,15.30
2022-11-22T06:05:18.040Z,15.30
2022-11-22T06:07:47.498Z,15.40
2022-11-22T06:10:16.239Z,15.40
2022-11-22T06:12:46.049Z,15.30
2022-11-22T06:15:16.025Z,15.40
2022-11-22T06:17:45.002Z,15.40
2022-11-22T06:20:14.023Z,15.40
2022-11-22T06:22:42.398Z,15.40
2022-11-22T06:25:11.898Z,15.40
2022-11-22T06:27:40.318Z,15.40
2022-11-22T06:30:11.404Z,15.40
2022-11-22T06:32:39.717Z,15.40
2022-11-22T06:35:09.244Z,15.40
2022-11-22T06:37:37.665Z,15.40
2022-11-22T06:40:08.507Z,15.40
2022-11-22T06:42:37.046Z,15.50
2022-11-22T06:45:06.037Z,15.50
2022-11-22T06:47:35.895Z,15.50
2022-11-22T06:50:04.998Z,15.50
2022-11-22T06:52:33.473Z,15.50
2022-11-22T06:55:11.910Z,15.40
2022-11-22T06:57:51.915Z,15.50
2022-11-22T07:00:20.869Z,15.50
2022-11-22T07:02:50.893Z,15.40
2022-11-22T07:05:25.777Z,15.40
2022-11-22T07:07:59.174Z,15.40
2022-11-22T07:10:31.307Z,15.40
2022-11-22T07:12:59.767Z,15.50
2022-11-22T07:15:28.190Z,15.40
2022-11-22T07:17:57.999Z,15.40
2022-11-22T07:20:26.363Z,15.40
2022-11-22T07:22:54.756Z,15.40
2022-11-22T07:25:23.528Z,15.50
2022-11-22T07:27:53.978Z,15.50
2022-11-22T07:30:22.465Z,15.50
2022-11-22T07:32:50.880Z,15.50
2022-11-22T07:35:20.986Z,15.40
2022-11-22T07:37:49.471Z,15.40
2022-11-22T07:40:18.397Z,15.50
2022-11-22T07:42:46.863Z,15.40
2022-11-22T07:45:15.519Z,15.40
2022-11-22T07:47:44.000Z,15.50
2022-11-22T07:50:13.305Z,15.40
2022-11-22T07:52:43.145Z,15.50
2022-11-22T07:55:14.262Z,15.50
2022-11-22T07:57:43.097Z,15.50
2022-11-22T08:00:13.427Z,15.50
2022-11-22T08:02:41.855Z,15.50
2022-11-22T08:05:10.753Z,15.50
2022-11-22T08:07:39.602Z,15.50
2022-11-22T08:10:11.007Z,15.50
2022-11-22T08:12:39.647Z,15.40
2022-11-22T08:15:08.742Z,15.50
2022-11-22T08:17:38.420Z,15.50
2022-11-22T08:20:09.936Z,15.50
2022-11-22T08:22:39.400Z,15.40
2022-11-22T08:25:12.731Z,15.40
2022-11-22T08:27:42.254Z,15.50
2022-11-22T08:30:12.523Z,15.50
2022-11-22T08:32:41.058Z,15.40
2022-11-22T08:35:10.437Z,15.50
2022-11-22T08:37:38.817Z,15.50
2022-11-22T08:40:10.155Z,15.50
2022-11-22T08:42:38.602Z,15.50
2022-11-22T08:45:08.299Z,15.50
2022-11-22T08:47:36.689Z,15.50
2022-11-22T08:50:05.994Z,15.50
2022-11-22T08:52:36.018Z,15.50
2022-11-22T08:55:04.696Z,15.50
2022-11-22T08:57:34.556Z,15.50
2022-11-22T09:00:02.923Z,15.50
2022-11-22T09:02:31.373Z,15.50
2022-11-22T09:04:59.735Z,15.50
2022-11-22T09:10:18.719Z,15.50
2022-11-22T09:12:48.711Z,15.60
2022-11-22T09:15:17.614Z,15.50
2022-11-22T09:17:46.389Z,15.50
2022-11-22T09:20:15.170Z,15.50
2022-11-22T09:22:43.581Z,15.50
2022-11-22T09:25:12.183Z,15.50
2022-11-22T09:27:40.533Z,15.50
2022-11-22T09:30:11.746Z,15.50
2022-11-22T09:32:40.145Z,15.50
2022-11-22T09:35:08.904Z,15.50
2022-11-22T09:37:37.361Z,15.50
2022-11-22T09:40:06.714Z,15.50
2022-11-22T09:42:52.622Z,15.50
2022-11-22T09:45:49.331Z,15.50
2022-11-22T09:48:38.340Z,15.50
2022-11-22T09:51:11.402Z,15.40
2022-11-22T09:53:44.305Z,15.50
2022-11-22T09:56:14.864Z,15.40
2022-11-22T09:58:48.768Z,15.50
2022-11-22T10:01:21.640Z,15.50
2022-11-22T10:03:55.823Z,15.50
2022-11-22T10:06:28.930Z,15.40
2022-11-22T10:09:08.037Z,15.40
2022-11-22T10:11:42.935Z,15.40
2022-11-22T10:14:22.602Z,15.40
2022-11-22T10:16:58.702Z,15.40
2022-11-22T10:19:36.061Z,15.40
2022-11-22T10:22:09.507Z,15.40
2022-11-22T10:24:38.014Z,15.40
2022-11-22T10:27:12.072Z,15.40
2022-11-22T10:29:45.105Z,15.40
2022-11-22T10:32:21.590Z,15.40
2022-11-22T10:35:07.416Z,15.40
2022-11-22T10:37:46.207Z,15.30
2022-11-22T10:40:21.655Z,15.30
2022-11-22T10:43:19.574Z,15.30
2022-11-22T10:45:51.945Z,15.30
2022-11-22T10:48:30.367Z,15.30
2022-11-22T10:51:06.698Z,15.30
2022-11-22T10:53:51.795Z,15.30
2022-11-22T10:56:27.243Z,15.30
2022-11-22T10:59:10.800Z,15.30
2022-11-22T11:01:46.572Z,15.20
2022-11-22T11:04:19.338Z,15.20
2022-11-22T11:07:11.003Z,15.20
2022-11-22T11:12:40.077Z,15.20
2022-11-22T11:15:17.926Z,15.20
2022-11-22T11:17:49.281Z,15.20
2022-11-22T11:20:26.586Z,15.20
2022-11-22T11:25:45.176Z,15.30
2022-11-22T11:28:19.099Z,15.30
2022-11-22T11:30:50.026Z,15.30
2022-11-22T11:33:26.696Z,15.20
2022-11-22T11:35:58.044Z,15.20
2022-11-22T11:38:29.002Z,15.30
2022-11-22T11:40:57.433Z,15.30
2022-11-22T11:43:27.027Z,15.30
2022-11-22T11:45:55.552Z,15.20
2022-11-22T11:48:29.239Z,15.20
2022-11-22T11:51:17.565Z,15.30
2022-11-22T11:53:55.274Z,15.20
2022-11-22T11:56:40.672Z,15.20
2022-11-22T11:59:15.278Z,15.20
2022-11-22T12:01:57.068Z,15.30
2022-11-22T12:04:29.016Z,15.20
2022-11-22T12:07:04.083Z,15.20
2022-11-22T12:09:35.790Z,15.20
2022-11-22T12:12:42.868Z,15.30
2022-11-22T12:15:20.935Z,15.20
2022-11-22T12:17:57.586Z,15.30
2022-11-22T12:20:31.838Z,15.20
2022-11-22T12:23:12.907Z,15.20
2022-11-22T12:25:42.670Z,15.20
2022-11-22T12:28:20.779Z,15.20
2022-11-22T12:30:56.415Z,15.20
2022-11-22T12:33:31.892Z,15.20
2022-11-22T12:36:01.928Z,15.20
2022-11-22T12:38:35.446Z,15.20
2022-11-22T12:41:07.432Z,15.20
2022-11-22T12:43:39.140Z,15.20
2022-11-22T12:46:12.240Z,15.20
2022-11-22T12:48:48.870Z,15.20
2022-11-22T12:51:24.787Z,15.20
2022-11-22T12:53:56.949Z,15.20
2022-11-22T12:56:33.802Z,15.20
2022-11-22T12:59:09.852Z,15.20
2022-11-22T13:01:45.633Z,15.20
2022-11-22T13:04:20.580Z,15.20
2022-11-22T13:06:58.008Z,15.20
2022-11-22T13:09:33.610Z,15.10
2022-11-22T13:12:06.884Z,15.10
2022-11-22T13:14:38.283Z,15.10
2022-11-22T13:17:10.313Z,15.20
2022-11-22T13:19:47.114Z,15.10
2022-11-22T13:22:20.679Z,15.20
2022-11-22T13:25:06.412Z,15.10
2022-11-22T13:27:38.149Z,15.10
2022-11-22T13:30:19.185Z,15.10
2022-11-22T13:32:51.272Z,15.10
2022-11-22T13:35:27.443Z,15.10
2022-11-22T13:37:58.614Z,15.10
2022-11-22T13:40:30.484Z,15.10
2022-11-22T13:43:34.514Z,15.10
2022-11-22T13:46:05.008Z,15.10
2022-11-22T13:49:14.508Z,15.20
2022-11-22T13:51:57.196Z,15.10
2022-11-22T13:55:00.822Z,15.20
2022-11-22T13:57:34.863Z,15.20
2022-11-22T14:00:45.861Z,15.20
2022-11-22T14:03:38.634Z,15.20
2022-11-22T14:06:31.026Z,15.20
2022-11-22T14:09:29.430Z,15.20
2022-11-22T14:12:28.166Z,15.20
2022-11-22T14:15:22.178Z,15.20
2022-11-22T14:18:00.953Z,15.20
2022-11-22T14:20:49.802Z,15.10
2022-11-22T14:23:29.703Z,15.20
2022-11-22T14:26:10.816Z,15.20
2022-11-22T14:29:11.690Z,15.20
2022-11-22T14:31:42.066Z,15.10
2022-11-22T14:34:21.470Z,15.10
2022-11-22T14:37:23.373Z,15.10
2022-11-22T14:40:13.113Z,15.20
2022-11-22T14:42:53.139Z,15.10
2022-11-22T14:45:26.298Z,15.10
2022-11-22T14:48:14.381Z,15.10
2022-11-22T14:50:45.659Z,15.20
2022-11-22T14:53:24.252Z,15.20
2022-11-22T14:55:57.656Z,15.10
2022-11-22T14:58:31.229Z,15.10
2022-11-22T15:01:29.354Z,15.10
2022-11-22T15:09:17.683Z,15.10
2022-11-22T15:09:20.355Z,15.10
2022-11-22T15:10:45.813Z,15.10
2022-11-22T15:13:29.080Z,15.10
2022-11-22T15:59:23.004Z,15.00
2022-11-22T16:01:51.540Z,15.00
2022-11-22T16:04:24.250Z,15.00
2022-11-22T16:06:53.968Z,15.00
2022-11-22T16:09:28.256Z,15.00
2022-11-22T16:12:02.405Z,14.90
2022-11-22T16:14:49.639Z,14.90
2022-11-22T16:17:29.875Z,14.90
2022-11-22T16:20:26.558Z,14.90
2022-11-22T16:23:20.044Z,14.90
2022-11-22T16:25:50.814Z,14.90
2022-11-22T16:28:28.580Z,14.90
2022-11-22T16:30:58.915Z,14.90
2022-11-22T16:33:27.456Z,14.90
2022-11-22T16:35:57.018Z,14.90
2022-11-22T16:38:26.222Z,14.90
2022-11-22T16:40:55.840Z,14.90
2022-11-22T16:43:27.179Z,14.90
2022-11-22T16:45:56.406Z,14.80
2022-11-22T16:48:32.915Z,14.90
2022-11-22T16:51:05.024Z,14.80
2022-11-22T16:53:41.582Z,14.80
2022-11-22T16:56:15.226Z,14.80
2022-11-22T16:58:45.557Z,14.80
2022-11-22T17:01:17.172Z,14.80
2022-11-22T17:03:47.212Z,14.80
2022-11-22T17:06:18.661Z,14.80
2022-11-22T17:08:47.816Z,14.80
2022-11-22T17:11:21.064Z,14.80
2022-11-22T17:13:51.621Z,14.80
2022-11-22T17:16:20.155Z,14.80
2022-11-22T17:18:49.608Z,14.80
2022-11-22T17:21:22.520Z,14.80
2022-11-22T17:23:51.475Z,14.80
2022-11-22T17:26:19.829Z,14.90
2022-11-22T17:28:48.320Z,14.90
2022-11-22T17:31:20.780Z,14.90
2022-11-22T17:33:51.719Z,14.80
2022-11-22T17:36:28.700Z,14.80
2022-11-22T17:38:57.353Z,14.80
2022-11-22T17:41:26.093Z,14.80
2022-11-22T17:43:54.942Z,14.80
2022-11-22T17:46:24.836Z,14.80
2022-11-22T17:48:54.146Z,14.80
2022-11-22T17:51:23.153Z,14.80
2022-11-22T17:53:52.866Z,14.80
2022-11-22T17:56:21.759Z,14.80
2022-11-22T17:58:50.194Z,14.80
2022-11-22T18:01:20.502Z,14.80
2022-11-22T18:03:52.179Z,14.80
2022-11-22T18:06:23.659Z,14.80
2022-11-22T18:08:53.127Z,14.80
2022-11-22T18:11:23.447Z,14.80
2022-11-22T18:13:52.913Z,14.80
2022-11-22T18:16:28.379Z,14.80
2022-11-22T18:19:00.871Z,14.80
2022-11-22T18:21:32.406Z,14.80
2022-11-22T18:24:01.727Z,14.80
2022-11-22T18:26:45.899Z,14.80
2022-11-22T18:32:04.049Z,14.80
2022-11-22T18:34:34.035Z,14.80
2022-11-22T18:37:04.153Z,14.80
2022-11-22T18:39:36.584Z,14.80
2022-11-22T18:42:06.270Z,14.80
2022-11-22T18:44:35.064Z,14.80
2022-11-22T18:47:03.945Z,14.80
2022-11-22T18:49:34.026Z,14.80
2022-11-22T18:52:03.869Z,14.70
2022-11-22T18:54:32.675Z,14.80
2022-11-22T18:57:01.477Z,14.70
2022-11-22T18:59:30.303Z,14.70
2022-11-22T19:01:58.716Z,14.70
2022-11-22T19:04:28.026Z,14.70
2022-11-22T19:06:58.632Z,14.70
2022-11-22T19:09:27.183Z,14.70
2022-11-22T19:11:58.710Z,14.80
2022-11-22T19:14:29.323Z,14.70
2022-11-22T19:16:58.181Z,14.70
2022-11-22T19:19:29.342Z,14.70
2022-11-22T19:21:59.322Z,14.70
2022-11-22T19:24:27.923Z,14.70
2022-11-22T19:26:56.575Z,14.80
2022-11-22T19:29:25.114Z,14.70
2022-11-22T19:31:54.079Z,14.70
2022-11-22T19:34:22.596Z,14.70
2022-11-22T19:36:51.034Z,14.70
2022-11-22T19:39:20.877Z,14.70
2022-11-22T19:41:49.288Z,14.70
2022-11-22T19:44:17.609Z,14.70
2022-11-22T19:46:46.176Z,14.70
2022-11-22T19:49:14.649Z,14.70
2022-11-22T19:51:43.007Z,14.70
2022-11-22T19:54:11.500Z,14.70
2022-11-22T19:56:41.298Z,14.70
2022-11-22T19:59:13.171Z,14.70
2022-11-22T20:01:41.555Z,14.70
2022-11-22T20:04:10.308Z,14.70
2022-11-22T20:06:38.775Z,14.70
2022-11-22T20:09:09.342Z,14.60
2022-11-22T20:11:38.737Z,14.60
2022-11-22T20:14:09.472Z,14.70
2022-11-22T20:16:41.343Z,14.60
2022-11-22T20:19:11.637Z,14.60
2022-11-22T20:21:41.717Z,14.60
2022-11-22T20:24:11.789Z,14.70
2022-11-22T20:26:40.712Z,14.70
2022-11-22T20:29:15.640Z,14.70
2022-11-22T20:31:44.243Z,14.60
2022-11-22T20:34:15.616Z,14.70
2022-11-22T20:36:45.090Z,14.60
2022-11-22T20:42:33.641Z,14.70
2022-11-22T20:45:01.856Z,14.70
2022-11-22T20:47:35.187Z,14.70
2022-11-22T20:50:05.585Z,14.70
2022-11-22T20:52:35.654Z,14.70
2022-11-22T20:55:05.466Z,14.70
2022-11-22T20:57:34.787Z,14.60
2022-11-22T21:00:10.168Z,14.60
2022-11-22T21:02:39.190Z,14.60
2022-11-22T21:05:12.525Z,14.60
2022-11-22T21:07:42.182Z,14.60
2022-11-22T21:10:20.142Z,14.60
2022-11-22T21:12:49.273Z,14.60
2022-11-22T21:15:19.842Z,14.60
2022-11-22T21:18:17.146Z,14.60
2022-11-22T21:20:38.591Z,14.60
2022-11-22T21:23:11.558Z,14.60
2022-11-22T21:25:41.288Z,14.60
2022-11-22T21:28:09.849Z,14.60
2022-11-22T21:30:41.295Z,14.60
2022-11-22T21:33:11.066Z,14.60
2022-11-22T21:35:42.734Z,14.60
2022-11-22T21:38:17.144Z,14.50
2022-11-22T21:40:58.371Z,14.60
2022-11-22T21:43:35.513Z,14.50
2022-11-22T21:46:06.145Z,14.50
2022-11-22T21:48:34.864Z,14.60
2022-11-22T21:51:04.114Z,14.50
2022-11-22T21:53:33.735Z,14.50
2022-11-22T21:56:04.135Z,14.60
2022-11-22T21:58:33.507Z,14.50
2022-11-22T22:01:09.560Z,14.50
2022-11-22T22:03:44.085Z,14.50
2022-11-22T22:06:12.824Z,14.50
2022-11-22T22:08:43.160Z,14.50
2022-11-22T22:11:12.880Z,14.50
2022-11-22T22:13:41.383Z,14.50
2022-11-22T22:16:15.819Z,14.40
2022-11-22T22:18:47.308Z,14.40
2022-11-22T22:21:16.544Z,14.50
2022-11-22T22:23:46.105Z,14.40
2022-11-22T22:26:17.147Z,14.40
2022-11-22T22:28:46.198Z,14.40
2022-11-22T22:31:17.297Z,14.40
2022-11-22T22:33:47.774Z,14.40
2022-11-22T22:36:16.367Z,14.40
2022-11-22T22:38:45.904Z,14.40
2022-11-22T22:41:15.450Z,14.40
2022-11-22T22:43:45.353Z,14.40
2022-11-22T22:46:16.047Z,14.40
2022-11-22T22:48:46.599Z,14.40
2022-11-22T22:51:16.331Z,14.40
2022-11-22T22:53:46.736Z,14.40
2022-11-22T22:56:16.886Z,14.40
2022-11-22T22:58:45.472Z,14.30
2022-11-22T23:01:17.506Z,14.30
2022-11-22T23:03:50.983Z,14.30
2022-11-22T23:06:21.554Z,14.30
2022-11-22T23:08:52.123Z,14.30
2022-11-22T23:11:44.145Z,14.30
2022-11-22T23:14:13.141Z,14.30
2022-11-22T23:16:41.838Z,14.30
2022-11-22T23:19:11.837Z,14.30
2022-11-22T23:21:40.986Z,14.30
2022-11-22T23:24:10.487Z,14.30
2022-11-22T23:26:39.080Z,14.30
2022-11-22T23:29:07.545Z,14.20
2022-11-22T23:31:36.126Z,14.20
2022-11-22T23:34:04.560Z,14.20
2022-11-22T23:36:40.236Z,14.20
2022-11-22T23:39:09.871Z,14.20
2022-11-22T23:41:38.446Z,14.20
2022-11-22T23:44:07.329Z,14.10
2022-11-22T23:46:35.747Z,14.20
2022-11-22T23:49:06.100Z,14.10
2022-11-22T23:51:37.429Z,14.20
2022-11-22T23:54:07.443Z,14.20
2022-11-22T23:56:37.268Z,14.20
2022-11-22T23:59:06.373Z,14.10
